Airfield :
LOGIN :

Register | Disclaimer

   EN    FR    IT 

 










Legend :    VFR   Marginal VFR   IFR   Intensive IFR   Very Intensive IFR
Visi :
Ceiling :
>= 8 km
>= 3000ft
5 to 8 km
1000 to 3000 ft
1500m to 5 km
500 to 1000 ft
800 to 1500m
200 to 500 ft
< 800m
< 200 ft
Symbols :   Thunderstorms  Fog  Heavy snow  Heavy precipitations  Wind > 20 kt
SIGMETs :     Misc.  Thunderstorms  Icing  Turbulence  Mountain Waves  Volcanic Ashes






- Airport Elevation : 1300 ft
- IATA code : LIG


LFBL - Limoges

CURRENT METAR :
  • 121130Z AUTO 31005KT 270V040 CAVOK 21/11 Q1032 NOSIG

EXPIRED METARs :
  • 121100Z AUTO 06003KT 360V140 CAVOK 21/10 Q1032 NOSIG
  • 121030Z AUTO 07004KT 020V110 CAVOK 20/09 Q1032 NOSIG
  • 121000Z AUTO 03005KT 310V080 CAVOK 19/08 Q1032 NOSIG
  • 120930Z AUTO 10005KT 030V140 CAVOK 18/08 Q1032 NOSIG
  • 120900Z AUTO 07008KT CAVOK 17/08 Q1032 NOSIG
  • 120830Z AUTO 08008KT CAVOK 16/08 Q1032 NOSIG
  • 120800Z AUTO 08007KT CAVOK 15/09 Q1032 NOSIG
  • 120730Z AUTO 08007KT CAVOK 15/09 Q1032 NOSIG
  • 120700Z AUTO 06006KT CAVOK 14/09 Q1032 NOSIG

TAF TAF LFBL
Valid from the 12 at 12:00 until the 13 at 12:00 UTC


121100Z 1212/1312 04005KT CAVOK
PROB30
TEMPO 1303/1306 3000 BR
ATIS : +33 5 55 48 40 37



MET'MAP, your aeronautical weather chart ! - Copyright ORBIFLY December 2007 - Disclaimer

ORBIFLY MET'MAP TEAM :

Programming & Development : Alexandra Zaïnal
Original concept : Baudouin d'Aumeries
Technical & hardware support : Manuel Goepfert
Assistance : Marc-Olivier Méhu




SOURCES & CREDITS :

   NOAA